sensor_id;sensor_type;location;lat;lon;timestamp;P1;durP1;ratioP1;P2;durP2;ratioP2
78055;SDS011;67666;55.862;49.094;2023-02-08T05:28:32;16.63;;;8.60;;
78055;SDS011;67666;55.862;49.094;2023-02-08T05:30:58;12.70;;;8.80;;
78055;SDS011;67666;55.862;49.094;2023-02-08T05:33:24;18.98;;;9.05;;
78055;SDS011;67666;55.862;49.094;2023-02-08T05:35:50;16.38;;;10.73;;
78055;SDS011;67666;55.862;49.094;2023-02-08T05:38:16;18.65;;;12.45;;
78055;SDS011;67666;55.862;49.094;2023-02-08T05:40:42;16.92;;;10.45;;
78055;SDS011;67666;55.862;49.094;2023-02-08T05:43:08;16.52;;;10.75;;
78055;SDS011;67666;55.862;49.094;2023-02-08T05:45:34;15.15;;;10.32;;
78055;SDS011;67666;55.862;49.094;2023-02-08T05:48:00;16.08;;;10.48;;
78055;SDS011;67666;55.862;49.094;2023-02-08T05:50:26;13.55;;;9.30;;
78055;SDS011;67666;55.862;49.094;2023-02-08T05:52:52;14.93;;;9.43;;
78055;SDS011;67666;55.862;49.094;2023-02-08T05:55:18;14.48;;;9.18;;
78055;SDS011;67666;55.862;49.094;2023-02-08T05:57:44;15.68;;;9.50;;
78055;SDS011;67666;55.862;49.094;2023-02-08T06:00:10;13.57;;;8.07;;
78055;SDS011;67666;55.862;49.094;2023-02-08T06:02:41;13.32;;;8.48;;
78055;SDS011;67666;55.862;49.094;2023-02-08T06:05:07;15.07;;;8.88;;
78055;SDS011;67666;55.862;49.094;2023-02-08T06:07:33;15.68;;;8.52;;
78055;SDS011;67666;55.862;49.094;2023-02-08T06:09:59;12.45;;;7.90;;
78055;SDS011;67666;55.862;49.094;2023-02-08T06:12:25;16.48;;;8.27;;
78055;SDS011;67666;55.862;49.094;2023-02-08T06:14:51;13.80;;;7.68;;
78055;SDS011;67666;55.862;49.094;2023-02-08T06:17:17;12.63;;;7.38;;
78055;SDS011;67666;55.862;49.094;2023-02-08T06:19:43;12.68;;;7.60;;
78055;SDS011;67666;55.862;49.094;2023-02-08T06:22:09;11.77;;;7.40;;
78055;SDS011;67666;55.862;49.094;2023-02-08T06:24:35;10.25;;;6.07;;
78055;SDS011;67666;55.862;49.094;2023-02-08T06:27:01;10.27;;;5.93;;
78055;SDS011;67666;55.862;49.094;2023-02-08T06:29:27;9.32;;;6.53;;
78055;SDS011;67666;55.862;49.094;2023-02-08T06:31:53;11.85;;;6.80;;
78055;SDS011;67666;55.862;49.094;2023-02-08T06:34:19;11.68;;;6.25;;
78055;SDS011;67666;55.862;49.094;2023-02-08T06:36:45;9.18;;;5.28;;
78055;SDS011;67666;55.862;49.094;2023-02-08T06:39:11;10.27;;;6.20;;
78055;SDS011;67666;55.862;49.094;2023-02-08T06:41:37;8.80;;;5.63;;
78055;SDS011;67666;55.862;49.094;2023-02-08T06:44:02;13.02;;;6.65;;
78055;SDS011;67666;55.862;49.094;2023-02-08T06:46:28;10.70;;;6.57;;
78055;SDS011;67666;55.862;49.094;2023-02-08T06:48:56;8.73;;;5.93;;
78055;SDS011;67666;55.862;49.094;2023-02-08T06:51:25;10.30;;;6.28;;
78055;SDS011;67666;55.862;49.094;2023-02-08T06:53:51;10.15;;;6.13;;
78055;SDS011;67666;55.862;49.094;2023-02-08T06:56:17;9.38;;;5.45;;
78055;SDS011;67666;55.862;49.094;2023-02-08T06:58:43;10.25;;;5.35;;
78055;SDS011;67666;55.862;49.094;2023-02-08T07:01:12;9.27;;;4.85;;
78055;SDS011;67666;55.862;49.094;2023-02-08T07:03:38;8.80;;;5.13;;
78055;SDS011;67666;55.862;49.094;2023-02-08T07:06:04;10.05;;;5.00;;
78055;SDS011;67666;55.862;49.094;2023-02-08T07:08:32;9.70;;;5.15;;
78055;SDS011;67666;55.862;49.094;2023-02-08T07:10:58;9.75;;;5.70;;
78055;SDS011;67666;55.862;49.094;2023-02-08T07:13:24;8.65;;;5.70;;
78055;SDS011;67666;55.862;49.094;2023-02-08T07:15:49;8.07;;;5.00;;
78055;SDS011;67666;55.862;49.094;2023-02-08T07:18:15;9.48;;;5.30;;
78055;SDS011;67666;55.862;49.094;2023-02-08T07:20:41;8.25;;;5.28;;
78055;SDS011;67666;55.862;49.094;2023-02-08T07:23:07;7.20;;;5.05;;
78055;SDS011;67666;55.862;49.094;2023-02-08T07:25:33;7.97;;;5.35;;
78055;SDS011;67666;55.862;49.094;2023-02-08T07:27:59;7.90;;;5.18;;
78055;SDS011;67666;55.862;49.094;2023-02-08T07:30:25;7.68;;;5.13;;
78055;SDS011;67666;55.862;49.094;2023-02-08T07:32:51;8.27;;;4.50;;
78055;SDS011;67666;55.862;49.094;2023-02-08T07:35:17;7.28;;;5.20;;
78055;SDS011;67666;55.862;49.094;2023-02-08T07:37:43;8.32;;;5.22;;
78055;SDS011;67666;55.862;49.094;2023-02-08T07:40:09;8.13;;;4.70;;
78055;SDS011;67666;55.862;49.094;2023-02-08T07:42:35;8.40;;;4.90;;
78055;SDS011;67666;55.862;49.094;2023-02-08T07:45:15;6.97;;;4.38;;
78055;SDS011;67666;55.862;49.094;2023-02-08T07:47:41;7.80;;;4.70;;
78055;SDS011;67666;55.862;49.094;2023-02-08T07:50:07;8.48;;;5.32;;
78055;SDS011;67666;55.862;49.094;2023-02-08T07:52:33;8.23;;;4.95;;
78055;SDS011;67666;55.862;49.094;2023-02-08T07:54:59;7.10;;;4.20;;
78055;SDS011;67666;55.862;49.094;2023-02-08T07:57:25;8.75;;;4.93;;
78055;SDS011;67666;55.862;49.094;2023-02-08T07:59:51;5.95;;;4.25;;
78055;SDS011;67666;55.862;49.094;2023-02-08T08:02:17;6.78;;;4.75;;
78055;SDS011;67666;55.862;49.094;2023-02-08T08:04:43;7.25;;;4.75;;
78055;SDS011;67666;55.862;49.094;2023-02-08T08:07:09;6.00;;;3.92;;
78055;SDS011;67666;55.862;49.094;2023-02-08T08:09:35;6.78;;;4.15;;
78055;SDS011;67666;55.862;49.094;2023-02-08T08:12:01;5.75;;;4.05;;
78055;SDS011;67666;55.862;49.094;2023-02-08T08:14:27;5.47;;;4.03;;
78055;SDS011;67666;55.862;49.094;2023-02-08T08:16:53;6.28;;;4.82;;
78055;SDS011;67666;55.862;49.094;2023-02-08T08:19:19;7.13;;;4.53;;
78055;SDS011;67666;55.862;49.094;2023-02-08T08:21:45;6.28;;;3.83;;
78055;SDS011;67666;55.862;49.094;2023-02-08T08:24:11;7.15;;;4.22;;
78055;SDS011;67666;55.862;49.094;2023-02-08T08:26:37;6.03;;;4.10;;
78055;SDS011;67666;55.862;49.094;2023-02-08T08:29:03;7.80;;;4.72;;
78055;SDS011;67666;55.862;49.094;2023-02-08T08:31:29;6.88;;;4.60;;
78055;SDS011;67666;55.862;49.094;2023-02-08T08:33:55;4.90;;;3.63;;
78055;SDS011;67666;55.862;49.094;2023-02-08T08:36:21;5.93;;;4.22;;
78055;SDS011;67666;55.862;49.094;2023-02-08T08:38:47;6.32;;;4.55;;
78055;SDS011;67666;55.862;49.094;2023-02-08T08:41:14;6.35;;;4.05;;
78055;SDS011;67666;55.862;49.094;2023-02-08T08:43:41;5.35;;;4.00;;
78055;SDS011;67666;55.862;49.094;2023-02-08T08:46:07;5.47;;;3.70;;
78055;SDS011;67666;55.862;49.094;2023-02-08T08:48:34;8.25;;;6.05;;
78055;SDS011;67666;55.862;49.094;2023-02-08T08:51:00;9.02;;;6.55;;
78055;SDS011;67666;55.862;49.094;2023-02-08T08:53:26;8.13;;;6.10;;
78055;SDS011;67666;55.862;49.094;2023-02-08T08:55:52;6.75;;;5.47;;
78055;SDS011;67666;55.862;49.094;2023-02-08T08:58:18;7.85;;;5.38;;
78055;SDS011;67666;55.862;49.094;2023-02-08T09:00:44;7.25;;;4.80;;
78055;SDS011;67666;55.862;49.094;2023-02-08T09:03:10;8.35;;;5.47;;
78055;SDS011;67666;55.862;49.094;2023-02-08T09:05:36;7.15;;;4.75;;
78055;SDS011;67666;55.862;49.094;2023-02-08T09:08:01;6.22;;;4.78;;
78055;SDS011;67666;55.862;49.094;2023-02-08T09:10:28;7.38;;;4.97;;
78055;SDS011;67666;55.862;49.094;2023-02-08T09:12:55;7.53;;;4.72;;
78055;SDS011;67666;55.862;49.094;2023-02-08T09:15:21;6.43;;;4.35;;
78055;SDS011;67666;55.862;49.094;2023-02-08T09:17:47;7.00;;;4.53;;
78055;SDS011;67666;55.862;49.094;2023-02-08T09:20:13;8.10;;;5.25;;
78055;SDS011;67666;55.862;49.094;2023-02-08T09:22:39;6.50;;;4.35;;
78055;SDS011;67666;55.862;49.094;2023-02-08T09:25:06;5.82;;;4.35;;
78055;SDS011;67666;55.862;49.094;2023-02-08T09:27:32;6.25;;;4.53;;
78055;SDS011;67666;55.862;49.094;2023-02-08T09:29:59;6.15;;;4.80;;
78055;SDS011;67666;55.862;49.094;2023-02-08T09:32:25;6.32;;;4.47;;
78055;SDS011;67666;55.862;49.094;2023-02-08T09:34:51;6.60;;;4.45;;
78055;SDS011;67666;55.862;49.094;2023-02-08T09:37:17;6.53;;;4.15;;
78055;SDS011;67666;55.862;49.094;2023-02-08T09:39:43;8.20;;;4.38;;
78055;SDS011;67666;55.862;49.094;2023-02-08T09:42:12;8.32;;;4.90;;
78055;SDS011;67666;55.862;49.094;2023-02-08T09:47:34;8.07;;;5.05;;
78055;SDS011;67666;55.862;49.094;2023-02-08T09:50:03;6.65;;;4.80;;
78055;SDS011;67666;55.862;49.094;2023-02-08T09:52:43;6.43;;;4.45;;
78055;SDS011;67666;55.862;49.094;2023-02-08T09:55:19;6.28;;;4.70;;
78055;SDS011;67666;55.862;49.094;2023-02-08T09:57:46;7.03;;;4.80;;
78055;SDS011;67666;55.862;49.094;2023-02-08T10:00:14;6.50;;;4.25;;
78055;SDS011;67666;55.862;49.094;2023-02-08T10:02:40;6.78;;;4.75;;
78055;SDS011;67666;55.862;49.094;2023-02-08T10:07:38;6.28;;;4.25;;
78055;SDS011;67666;55.862;49.094;2023-02-08T10:10:05;7.55;;;4.95;;
78055;SDS011;67666;55.862;49.094;2023-02-08T10:15:15;6.78;;;4.65;;
78055;SDS011;67666;55.862;49.094;2023-02-08T10:20:51;6.95;;;5.25;;
78055;SDS011;67666;55.862;49.094;2023-02-08T10:36:50;6.82;;;4.78;;
78055;SDS011;67666;55.862;49.094;2023-02-08T10:39:30;5.63;;;4.30;;
78055;SDS011;67666;55.862;49.094;2023-02-08T10:41:57;7.07;;;4.80;;
78055;SDS011;67666;55.862;49.094;2023-02-08T10:44:29;7.05;;;5.28;;
78055;SDS011;67666;55.862;49.094;2023-02-08T10:52:30;7.60;;;5.05;;
78055;SDS011;67666;55.862;49.094;2023-02-08T10:55:15;7.90;;;4.88;;
78055;SDS011;67666;55.862;49.094;2023-02-08T10:57:41;6.25;;;4.70;;
78055;SDS011;67666;55.862;49.094;2023-02-08T11:00:21;6.40;;;4.68;;
78055;SDS011;67666;55.862;49.094;2023-02-08T11:02:49;5.97;;;4.43;;
78055;SDS011;67666;55.862;49.094;2023-02-08T11:08:09;7.18;;;4.97;;
78055;SDS011;67666;55.862;49.094;2023-02-08T11:10:36;5.95;;;4.32;;
78055;SDS011;67666;55.862;49.094;2023-02-08T11:18:05;6.63;;;4.60;;
78055;SDS011;67666;55.862;49.094;2023-02-08T11:20:37;8.65;;;4.68;;
78055;SDS011;67666;55.862;49.094;2023-02-08T11:23:05;7.35;;;5.13;;
78055;SDS011;67666;55.862;49.094;2023-02-08T11:25:42;10.85;;;6.30;;
78055;SDS011;67666;55.862;49.094;2023-02-08T11:28:20;11.00;;;6.20;;
78055;SDS011;67666;55.862;49.094;2023-02-08T11:31:21;9.05;;;6.22;;
78055;SDS011;67666;55.862;49.094;2023-02-08T11:36:27;9.57;;;6.75;;
78055;SDS011;67666;55.862;49.094;2023-02-08T11:38:53;9.48;;;6.32;;
78055;SDS011;67666;55.862;49.094;2023-02-08T11:41:20;10.10;;;6.75;;
78055;SDS011;67666;55.862;49.094;2023-02-08T11:46:21;8.40;;;5.95;;
78055;SDS011;67666;55.862;49.094;2023-02-08T11:48:48;8.98;;;6.53;;
78055;SDS011;67666;55.862;49.094;2023-02-08T11:51:23;8.25;;;5.75;;
78055;SDS011;67666;55.862;49.094;2023-02-08T11:53:50;9.90;;;6.38;;
78055;SDS011;67666;55.862;49.094;2023-02-08T11:56:20;10.88;;;6.95;;
78055;SDS011;67666;55.862;49.094;2023-02-08T11:58:56;9.75;;;6.72;;
78055;SDS011;67666;55.862;49.094;2023-02-08T12:01:25;11.07;;;7.75;;
78055;SDS011;67666;55.862;49.094;2023-02-08T12:03:51;9.85;;;7.07;;
78055;SDS011;67666;55.862;49.094;2023-02-08T12:08:53;11.63;;;8.65;;
78055;SDS011;67666;55.862;49.094;2023-02-08T12:11:31;12.57;;;8.10;;
78055;SDS011;67666;55.862;49.094;2023-02-08T12:14:04;11.30;;;7.13;;
78055;SDS011;67666;55.862;49.094;2023-02-08T12:19:33;10.40;;;7.30;;
78055;SDS011;67666;55.862;49.094;2023-02-08T12:22:06;10.65;;;6.65;;
78055;SDS011;67666;55.862;49.094;2023-02-08T12:32:40;10.18;;;6.78;;
78055;SDS011;67666;55.862;49.094;2023-02-08T12:35:23;9.38;;;6.30;;
78055;SDS011;67666;55.862;49.094;2023-02-08T12:38:13;9.15;;;6.45;;
78055;SDS011;67666;55.862;49.094;2023-02-08T12:43:42;11.00;;;7.40;;
78055;SDS011;67666;55.862;49.094;2023-02-08T12:53:43;9.13;;;6.45;;
78055;SDS011;67666;55.862;49.094;2023-02-08T12:56:14;10.93;;;7.10;;
78055;SDS011;67666;55.862;49.094;2023-02-08T12:58:45;8.80;;;6.35;;
78055;SDS011;67666;55.862;49.094;2023-02-08T13:03:50;9.30;;;6.47;;
78055;SDS011;67666;55.862;49.094;2023-02-08T13:06:20;8.88;;;6.20;;
78055;SDS011;67666;55.862;49.094;2023-02-08T13:12:00;9.77;;;6.13;;
78055;SDS011;67666;55.862;49.094;2023-02-08T13:16:57;7.68;;;6.03;;
78055;SDS011;67666;55.862;49.094;2023-02-08T13:21:50;7.15;;;5.43;;
78055;SDS011;67666;55.862;49.094;2023-02-08T13:24:29;7.38;;;4.93;;
78055;SDS011;67666;55.862;49.094;2023-02-08T13:26:56;6.40;;;5.30;;
78055;SDS011;67666;55.862;49.094;2023-02-08T13:29:22;6.88;;;5.53;;
78055;SDS011;67666;55.862;49.094;2023-02-08T13:31:52;8.85;;;5.55;;
78055;SDS011;67666;55.862;49.094;2023-02-08T13:34:32;7.45;;;5.13;;
78055;SDS011;67666;55.862;49.094;2023-02-08T13:37:02;6.68;;;5.05;;
78055;SDS011;67666;55.862;49.094;2023-02-08T13:41:57;7.68;;;5.13;;
78055;SDS011;67666;55.862;49.094;2023-02-08T13:44:27;6.63;;;5.38;;
78055;SDS011;67666;55.862;49.094;2023-02-08T13:46:55;7.05;;;5.43;;
78055;SDS011;67666;55.862;49.094;2023-02-08T13:52:06;7.10;;;4.78;;
78055;SDS011;67666;55.862;49.094;2023-02-08T13:56:58;6.78;;;4.30;;
78055;SDS011;67666;55.862;49.094;2023-02-08T14:04:36;7.25;;;4.93;;
78055;SDS011;67666;55.862;49.094;2023-02-08T14:07:17;6.43;;;4.72;;
78055;SDS011;67666;55.862;49.094;2023-02-08T14:12:14;5.97;;;4.55;;
78055;SDS011;67666;55.862;49.094;2023-02-08T14:15:03;7.20;;;4.93;;
78055;SDS011;67666;55.862;49.094;2023-02-08T14:17:29;6.25;;;4.68;;
78055;SDS011;67666;55.862;49.094;2023-02-08T14:20:05;5.00;;;4.15;;
78055;SDS011;67666;55.862;49.094;2023-02-08T14:22:46;6.53;;;4.50;;
78055;SDS011;67666;55.862;49.094;2023-02-08T14:25:20;6.85;;;5.00;;
78055;SDS011;67666;55.862;49.094;2023-02-08T14:30:20;6.80;;;5.30;;
78055;SDS011;67666;55.862;49.094;2023-02-08T14:35:26;6.47;;;5.00;;
78055;SDS011;67666;55.862;49.094;2023-02-08T14:45:46;7.30;;;4.72;;
78055;SDS011;67666;55.862;49.094;2023-02-08T14:53:34;6.18;;;5.00;;
78055;SDS011;67666;55.862;49.094;2023-02-08T14:59:04;6.97;;;4.80;;
78055;SDS011;67666;55.862;49.094;2023-02-08T15:04:00;6.57;;;4.95;;
78055;SDS011;67666;55.862;49.094;2023-02-08T15:06:42;6.82;;;5.13;;
78055;SDS011;67666;55.862;49.094;2023-02-08T15:11:39;6.40;;;4.80;;
78055;SDS011;67666;55.862;49.094;2023-02-08T15:14:05;7.28;;;5.72;;
78055;SDS011;67666;55.862;49.094;2023-02-08T15:16:35;7.53;;;5.10;;
78055;SDS011;67666;55.862;49.094;2023-02-08T15:21:30;8.05;;;5.40;;
78055;SDS011;67666;55.862;49.094;2023-02-08T15:24:01;6.60;;;4.90;;
78055;SDS011;67666;55.862;49.094;2023-02-08T15:26:27;6.93;;;5.10;;
78055;SDS011;67666;55.862;49.094;2023-02-08T15:28:53;6.28;;;5.13;;
78055;SDS011;67666;55.862;49.094;2023-02-08T15:31:24;7.07;;;4.70;;
78055;SDS011;67666;55.862;49.094;2023-02-08T15:33:54;6.57;;;4.95;;
78055;SDS011;67666;55.862;49.094;2023-02-08T15:38:52;5.68;;;4.40;;
78055;SDS011;67666;55.862;49.094;2023-02-08T15:41:23;4.72;;;3.80;;
78055;SDS011;67666;55.862;49.094;2023-02-08T15:43:50;5.45;;;4.03;;
78055;SDS011;67666;55.862;49.094;2023-02-08T15:46:17;6.07;;;4.43;;
78055;SDS011;67666;55.862;49.094;2023-02-08T15:48:45;7.13;;;4.88;;
78055;SDS011;67666;55.862;49.094;2023-02-08T15:51:11;5.95;;;4.07;;
78055;SDS011;67666;55.862;49.094;2023-02-08T15:53:43;5.43;;;4.05;;
78055;SDS011;67666;55.862;49.094;2023-02-08T15:56:10;7.57;;;5.00;;
78055;SDS011;67666;55.862;49.094;2023-02-08T15:58:43;5.78;;;4.68;;
78055;SDS011;67666;55.862;49.094;2023-02-08T16:01:28;6.78;;;4.82;;
78055;SDS011;67666;55.862;49.094;2023-02-08T16:03:55;8.40;;;5.75;;
78055;SDS011;67666;55.862;49.094;2023-02-08T16:06:26;7.78;;;6.38;;
78055;SDS011;67666;55.862;49.094;2023-02-08T16:08:53;8.38;;;6.05;;
78055;SDS011;67666;55.862;49.094;2023-02-08T16:11:32;8.05;;;5.45;;
78055;SDS011;67666;55.862;49.094;2023-02-08T16:13:59;8.32;;;5.65;;
78055;SDS011;67666;55.862;49.094;2023-02-08T16:26:45;7.80;;;5.40;;
78055;SDS011;67666;55.862;49.094;2023-02-08T16:29:22;6.22;;;4.32;;
78055;SDS011;67666;55.862;49.094;2023-02-08T16:31:54;5.07;;;4.07;;
78055;SDS011;67666;55.862;49.094;2023-02-08T16:34:21;5.25;;;3.70;;
78055;SDS011;67666;55.862;49.094;2023-02-08T16:36:50;6.15;;;4.05;;
78055;SDS011;67666;55.862;49.094;2023-02-08T16:44:24;4.65;;;3.60;;
78055;SDS011;67666;55.862;49.094;2023-02-08T16:46:51;4.78;;;3.53;;
78055;SDS011;67666;55.862;49.094;2023-02-08T16:49:17;6.00;;;3.90;;
78055;SDS011;67666;55.862;49.094;2023-02-08T16:51:43;5.40;;;3.95;;
78055;SDS011;67666;55.862;49.094;2023-02-08T16:54:13;5.57;;;3.50;;
78055;SDS011;67666;55.862;49.094;2023-02-08T16:56:40;5.65;;;4.10;;
78055;SDS011;67666;55.862;49.094;2023-02-08T17:01:33;6.40;;;4.10;;
78055;SDS011;67666;55.862;49.094;2023-02-08T17:03:59;5.38;;;3.63;;
78055;SDS011;67666;55.862;49.094;2023-02-08T17:06:32;5.95;;;3.80;;
78055;SDS011;67666;55.862;49.094;2023-02-08T17:08:58;5.22;;;3.88;;
78055;SDS011;67666;55.862;49.094;2023-02-08T17:11:25;6.18;;;4.18;;
78055;SDS011;67666;55.862;49.094;2023-02-08T17:13:51;4.45;;;3.42;;
78055;SDS011;67666;55.862;49.094;2023-02-08T17:16:18;5.28;;;3.78;;
78055;SDS011;67666;55.862;49.094;2023-02-08T17:18:45;5.53;;;3.80;;
78055;SDS011;67666;55.862;49.094;2023-02-08T17:21:11;5.03;;;3.70;;
78055;SDS011;67666;55.862;49.094;2023-02-08T17:23:37;4.47;;;3.65;;
78055;SDS011;67666;55.862;49.094;2023-02-08T17:26:17;6.00;;;4.25;;
78055;SDS011;67666;55.862;49.094;2023-02-08T17:28:44;5.88;;;3.80;;
78055;SDS011;67666;55.862;49.094;2023-02-08T17:31:11;5.72;;;3.90;;
78055;SDS011;67666;55.862;49.094;2023-02-08T17:33:37;4.15;;;3.55;;
78055;SDS011;67666;55.862;49.094;2023-02-08T17:36:05;5.22;;;3.80;;
78055;SDS011;67666;55.862;49.094;2023-02-08T17:43:53;4.95;;;3.67;;
78055;SDS011;67666;55.862;49.094;2023-02-08T17:46:21;4.45;;;3.45;;
78055;SDS011;67666;55.862;49.094;2023-02-08T17:48:47;4.82;;;3.67;;
78055;SDS011;67666;55.862;49.094;2023-02-08T17:51:14;5.50;;;3.70;;
78055;SDS011;67666;55.862;49.094;2023-02-08T17:53:41;5.60;;;3.80;;
78055;SDS011;67666;55.862;49.094;2023-02-08T17:56:12;5.75;;;3.63;;
78055;SDS011;67666;55.862;49.094;2023-02-08T17:58:38;5.32;;;3.70;;
78055;SDS011;67666;55.862;49.094;2023-02-08T18:01:05;4.32;;;3.40;;
78055;SDS011;67666;55.862;49.094;2023-02-08T18:03:31;3.92;;;3.15;;
78055;SDS011;67666;55.862;49.094;2023-02-08T18:05:58;4.95;;;3.75;;
78055;SDS011;67666;55.862;49.094;2023-02-08T18:08:37;3.97;;;3.35;;
78055;SDS011;67666;55.862;49.094;2023-02-08T18:11:08;4.90;;;4.38;;
78055;SDS011;67666;55.862;49.094;2023-02-08T18:13:38;5.80;;;4.63;;
78055;SDS011;67666;55.862;49.094;2023-02-08T18:16:12;5.70;;;4.47;;
78055;SDS011;67666;55.862;49.094;2023-02-08T18:18:39;5.15;;;4.35;;
78055;SDS011;67666;55.862;49.094;2023-02-08T18:21:12;6.57;;;4.28;;
78055;SDS011;67666;55.862;49.094;2023-02-08T18:23:40;6.90;;;4.55;;
78055;SDS011;67666;55.862;49.094;2023-02-08T18:26:07;5.30;;;4.18;;
78055;SDS011;67666;55.862;49.094;2023-02-08T18:28:34;5.63;;;4.30;;
78055;SDS011;67666;55.862;49.094;2023-02-08T18:31:04;4.93;;;4.10;;
78055;SDS011;67666;55.862;49.094;2023-02-08T18:33:31;6.13;;;3.80;;
78055;SDS011;67666;55.862;49.094;2023-02-08T18:35:57;5.75;;;4.00;;
78055;SDS011;67666;55.862;49.094;2023-02-08T18:38:23;7.10;;;4.40;;
78055;SDS011;67666;55.862;49.094;2023-02-08T18:40:49;5.82;;;4.00;;
78055;SDS011;67666;55.862;49.094;2023-02-08T18:43:15;4.97;;;3.85;;
78055;SDS011;67666;55.862;49.094;2023-02-08T18:45:47;5.20;;;3.70;;
78055;SDS011;67666;55.862;49.094;2023-02-08T18:48:21;5.97;;;3.78;;
78055;SDS011;67666;55.862;49.094;2023-02-08T18:50:52;5.50;;;4.03;;
78055;SDS011;67666;55.862;49.094;2023-02-08T18:53:21;7.40;;;4.22;;
78055;SDS011;67666;55.862;49.094;2023-02-08T18:55:55;6.30;;;4.22;;
78055;SDS011;67666;55.862;49.094;2023-02-08T18:58:21;4.25;;;3.40;;
78055;SDS011;67666;55.862;49.094;2023-02-08T19:00:48;4.80;;;3.38;;
78055;SDS011;67666;55.862;49.094;2023-02-08T19:03:18;6.65;;;4.40;;
78055;SDS011;67666;55.862;49.094;2023-02-08T19:05:44;5.47;;;4.13;;
78055;SDS011;67666;55.862;49.094;2023-02-08T19:08:10;4.88;;;3.85;;
78055;SDS011;67666;55.862;49.094;2023-02-08T19:10:37;5.88;;;4.15;;
78055;SDS011;67666;55.862;49.094;2023-02-08T19:13:03;5.05;;;3.60;;
78055;SDS011;67666;55.862;49.094;2023-02-08T19:15:29;4.55;;;3.42;;
78055;SDS011;67666;55.862;49.094;2023-02-08T19:17:55;5.93;;;3.92;;
78055;SDS011;67666;55.862;49.094;2023-02-08T19:20:23;5.63;;;3.83;;
78055;SDS011;67666;55.862;49.094;2023-02-08T19:22:50;6.65;;;4.28;;
78055;SDS011;67666;55.862;49.094;2023-02-08T19:25:16;5.07;;;3.72;;
78055;SDS011;67666;55.862;49.094;2023-02-08T19:27:42;5.20;;;3.47;;
78055;SDS011;67666;55.862;49.094;2023-02-08T19:30:08;5.15;;;3.72;;
78055;SDS011;67666;55.862;49.094;2023-02-08T19:32:34;6.35;;;3.85;;
78055;SDS011;67666;55.862;49.094;2023-02-08T19:35:00;5.38;;;3.83;;
78055;SDS011;67666;55.862;49.094;2023-02-08T19:37:26;6.47;;;3.53;;
78055;SDS011;67666;55.862;49.094;2023-02-08T19:39:52;5.38;;;3.83;;
78055;SDS011;67666;55.862;49.094;2023-02-08T19:42:18;5.88;;;3.80;;
78055;SDS011;67666;55.862;49.094;2023-02-08T19:44:44;5.95;;;3.97;;
78055;SDS011;67666;55.862;49.094;2023-02-08T19:47:10;5.70;;;3.65;;
78055;SDS011;67666;55.862;49.094;2023-02-08T19:49:39;7.15;;;3.80;;
78055;SDS011;67666;55.862;49.094;2023-02-08T19:52:05;4.88;;;3.42;;
78055;SDS011;67666;55.862;49.094;2023-02-08T19:54:31;4.32;;;3.30;;
78055;SDS011;67666;55.862;49.094;2023-02-08T19:56:57;5.35;;;3.85;;
78055;SDS011;67666;55.862;49.094;2023-02-08T19:59:24;4.78;;;3.55;;
78055;SDS011;67666;55.862;49.094;2023-02-08T20:01:51;6.70;;;3.92;;
78055;SDS011;67666;55.862;49.094;2023-02-08T20:04:17;6.93;;;3.25;;
78055;SDS011;67666;55.862;49.094;2023-02-08T20:06:43;6.28;;;3.75;;
78055;SDS011;67666;55.862;49.094;2023-02-08T20:09:09;4.68;;;3.20;;
78055;SDS011;67666;55.862;49.094;2023-02-08T20:11:36;6.82;;;4.00;;
78055;SDS011;67666;55.862;49.094;2023-02-08T20:16:28;5.25;;;3.55;;
78055;SDS011;67666;55.862;49.094;2023-02-08T20:18:54;5.20;;;3.90;;
78055;SDS011;67666;55.862;49.094;2023-02-08T20:21:21;4.15;;;3.28;;
78055;SDS011;67666;55.862;49.094;2023-02-08T20:23:47;5.20;;;3.92;;
78055;SDS011;67666;55.862;49.094;2023-02-08T20:26:15;5.20;;;3.75;;
78055;SDS011;67666;55.862;49.094;2023-02-08T20:28:42;6.50;;;3.58;;
78055;SDS011;67666;55.862;49.094;2023-02-08T20:31:19;6.43;;;3.72;;
78055;SDS011;67666;55.862;49.094;2023-02-08T20:33:46;6.07;;;3.60;;
78055;SDS011;67666;55.862;49.094;2023-02-08T20:36:14;5.25;;;3.40;;
78055;SDS011;67666;55.862;49.094;2023-02-08T20:38:40;6.07;;;3.88;;
78055;SDS011;67666;55.862;49.094;2023-02-08T20:41:07;6.15;;;3.90;;
78055;SDS011;67666;55.862;49.094;2023-02-08T20:43:33;6.20;;;3.60;;
78055;SDS011;67666;55.862;49.094;2023-02-08T20:46:00;5.40;;;3.58;;
78055;SDS011;67666;55.862;49.094;2023-02-08T20:48:29;5.35;;;3.65;;
78055;SDS011;67666;55.862;49.094;2023-02-08T20:51:07;5.28;;;3.60;;
78055;SDS011;67666;55.862;49.094;2023-02-08T20:53:34;6.55;;;3.60;;
78055;SDS011;67666;55.862;49.094;2023-02-08T20:56:10;6.68;;;3.35;;
78055;SDS011;67666;55.862;49.094;2023-02-08T20:58:37;5.90;;;3.90;;
78055;SDS011;67666;55.862;49.094;2023-02-08T21:01:19;5.40;;;3.40;;
78055;SDS011;67666;55.862;49.094;2023-02-08T21:03:47;4.65;;;3.65;;
78055;SDS011;67666;55.862;49.094;2023-02-08T21:06:14;6.03;;;3.90;;
78055;SDS011;67666;55.862;49.094;2023-02-08T21:08:40;5.55;;;3.15;;
78055;SDS011;67666;55.862;49.094;2023-02-08T21:11:06;5.07;;;3.47;;
78055;SDS011;67666;55.862;49.094;2023-02-08T21:13:33;5.93;;;3.33;;
78055;SDS011;67666;55.862;49.094;2023-02-08T21:15:59;4.65;;;3.72;;
78055;SDS011;67666;55.862;49.094;2023-02-08T21:18:28;6.30;;;3.80;;
78055;SDS011;67666;55.862;49.094;2023-02-08T21:20:54;8.45;;;3.83;;
78055;SDS011;67666;55.862;49.094;2023-02-08T21:23:20;6.53;;;3.70;;
78055;SDS011;67666;55.862;49.094;2023-02-08T21:25:46;4.68;;;3.50;;
78055;SDS011;67666;55.862;49.094;2023-02-08T21:28:12;7.55;;;4.10;;
78055;SDS011;67666;55.862;49.094;2023-02-08T21:30:39;6.05;;;3.50;;
78055;SDS011;67666;55.862;49.094;2023-02-08T21:33:05;5.70;;;3.53;;
78055;SDS011;67666;55.862;49.094;2023-02-08T21:35:35;6.85;;;3.90;;
78055;SDS011;67666;55.862;49.094;2023-02-08T21:38:01;7.68;;;4.32;;
78055;SDS011;67666;55.862;49.094;2023-02-08T21:40:27;6.78;;;3.85;;
78055;SDS011;67666;55.862;49.094;2023-02-08T21:42:53;4.78;;;3.13;;
78055;SDS011;67666;55.862;49.094;2023-02-08T21:45:19;4.45;;;3.40;;
78055;SDS011;67666;55.862;49.094;2023-02-08T21:47:45;5.90;;;3.15;;
78055;SDS011;67666;55.862;49.094;2023-02-08T21:50:11;3.55;;;2.78;;
78055;SDS011;67666;55.862;49.094;2023-02-08T21:52:56;4.80;;;2.70;;
78055;SDS011;67666;55.862;49.094;2023-02-08T21:55:46;5.15;;;3.17;;
78055;SDS011;67666;55.862;49.094;2023-02-08T21:58:12;5.80;;;3.63;;
78055;SDS011;67666;55.862;49.094;2023-02-08T22:00:39;5.22;;;3.60;;
78055;SDS011;67666;55.862;49.094;2023-02-08T22:03:04;5.05;;;2.80;;
78055;SDS011;67666;55.862;49.094;2023-02-08T22:05:30;7.80;;;3.08;;
78055;SDS011;67666;55.862;49.094;2023-02-08T22:08:15;6.38;;;2.85;;
78055;SDS011;67666;55.862;49.094;2023-02-08T22:10:41;4.20;;;2.80;;
78055;SDS011;67666;55.862;49.094;2023-02-08T22:13:07;3.70;;;2.50;;
78055;SDS011;67666;55.862;49.094;2023-02-08T22:15:33;3.95;;;2.72;;
78055;SDS011;67666;55.862;49.094;2023-02-08T22:18:00;3.90;;;2.42;;
78055;SDS011;67666;55.862;49.094;2023-02-08T22:22:52;4.32;;;2.50;;
78055;SDS011;67666;55.862;49.094;2023-02-08T22:25:18;5.25;;;2.67;;
78055;SDS011;67666;55.862;49.094;2023-02-08T22:27:44;4.20;;;2.65;;
78055;SDS011;67666;55.862;49.094;2023-02-08T22:30:11;3.90;;;2.88;;
78055;SDS011;67666;55.862;49.094;2023-02-08T22:32:38;4.75;;;2.75;;
78055;SDS011;67666;55.862;49.094;2023-02-08T22:35:05;4.50;;;2.15;;
78055;SDS011;67666;55.862;49.094;2023-02-08T22:37:31;3.10;;;2.42;;
78055;SDS011;67666;55.862;49.094;2023-02-08T22:39:57;3.65;;;2.50;;